Time;durP1;ratioP1;P1;durP2;ratioP2;P2;SDS_P1;SDS_P2;PMS_P1;PMS_P2;Temp;Humidity;BMP_temperature;BMP_pressure;BME280_temperature;BME280_humidity;BME280_pressure;Samples;Min_cycle;Max_cycle;Signal;HPM_P1;HPM_P2
2022/03/02 00:00:14;;;;;;;19.73;8.25;;;;;;;-5.50;77.50;96287.59;4991242;28;20443;-73
2022/03/02 00:03:00;;;;;;;16.63;7.55;;;;;;;-5.18;77.43;96294.72;4978634;28;20061;-73
2022/03/02 00:05:27;;;;;;;15.20;7.47;;;;;;;-5.18;77.38;96294.72;4991265;28;20050;-72
2022/03/02 00:07:53;;;;;;;22.60;8.65;;;;;;;-5.08;76.53;96295.41;4989088;28;20042;-72
2022/03/02 00:10:19;;;;;;;20.23;8.10;;;;;;;-4.98;76.73;96294.50;4988673;28;20042;-72
2022/03/02 00:12:45;;;;;;;18.95;8.40;;;;;;;-5.07;77.43;96296.19;4987875;28;20041;-72
2022/03/02 00:15:10;;;;;;;18.70;8.40;;;;;;;-5.02;77.54;96288.88;4971978;28;20078;-72
2022/03/02 00:17:36;;;;;;;20.75;8.10;;;;;;;-5.05;77.08;96284.84;4985056;28;20077;-72
2022/03/02 00:20:04;;;;;;;18.30;7.90;;;;;;;-5.14;77.45;96285.75;4981712;28;20051;-72
2022/03/02 00:22:30;;;;;;;21.80;8.30;;;;;;;-5.24;78.03;96283.28;4987070;28;20058;-72
2022/03/02 00:24:55;;;;;;;17.08;8.05;;;;;;;-5.24;78.26;96274.78;4985106;28;20042;-72
2022/03/02 00:27:24;;;;;;;21.60;8.07;;;;;;;-5.25;77.50;96278.31;4972476;28;20141;-72
2022/03/02 00:29:50;;;;;;;20.17;8.02;;;;;;;-5.36;78.08;96273.41;4989120;28;20510;-73
2022/03/02 00:32:16;;;;;;;18.52;9.00;;;;;;;-5.34;78.51;96271.50;4985447;28;20046;-72
2022/03/02 00:34:42;;;;;;;22.85;7.75;;;;;;;-5.29;77.87;96269.28;4985133;28;20089;-73
2022/03/02 00:37:08;;;;;;;20.05;8.10;;;;;;;-5.32;77.73;96267.03;4989618;28;20392;-72
2022/03/02 00:39:34;;;;;;;22.67;8.15;;;;;;;-5.36;78.28;96260.59;4986196;28;20065;-73
2022/03/02 00:42:00;;;;;;;18.38;7.90;;;;;;;-5.40;78.42;96255.78;4984567;28;20049;-72
2022/03/02 00:44:26;;;;;;;15.73;7.65;;;;;;;-5.47;78.91;96259.88;4985548;28;20050;-72
2022/03/02 00:46:52;;;;;;;16.70;7.50;;;;;;;-5.59;79.40;96261.06;4989297;28;20042;-72
2022/03/02 00:49:17;;;;;;;17.38;7.65;;;;;;;-5.56;78.66;96247.94;4980638;28;20113;-72
2022/03/02 00:51:43;;;;;;;17.73;7.28;;;;;;;-5.50;78.79;96255.06;4984461;28;20491;-72
2022/03/02 00:54:10;;;;;;;18.40;7.35;;;;;;;-5.55;78.39;96252.13;4986609;28;20046;-72
2022/03/02 00:56:36;;;;;;;20.45;7.43;;;;;;;-5.64;79.19;96253.03;4971197;28;20047;-72
2022/03/02 00:59:01;;;;;;;19.27;7.35;;;;;;;-5.57;78.85;96251.50;4990346;28;20042;-73
2022/03/02 01:01:28;;;;;;;15.95;7.05;;;;;;;-5.54;78.89;96243.50;4982088;28;20038;-73
2022/03/02 01:03:54;;;;;;;15.77;7.82;;;;;;;-5.55;77.68;96243.66;4976315;28;20137;-72
2022/03/02 01:06:20;;;;;;;15.40;7.53;;;;;;;-5.62;79.02;96248.56;4976504;28;20141;-73
2022/03/02 01:08:46;;;;;;;19.02;8.40;;;;;;;-5.61;79.01;96238.16;4983870;28;20042;-73
2022/03/02 01:11:12;;;;;;;18.90;7.53;;;;;;;-5.62;79.14;96230.59;4979787;28;20056;-73
2022/03/02 01:13:37;;;;;;;15.20;6.95;;;;;;;-5.75;79.76;96221.56;4984964;28;20046;-73
2022/03/02 01:16:03;;;;;;;18.13;7.90;;;;;;;-5.91;79.95;96221.44;4970341;28;20078;-73
2022/03/02 01:18:29;;;;;;;16.15;7.18;;;;;;;-5.94;79.74;96217.41;4989664;28;20046;-73
2022/03/02 01:20:55;;;;;;;14.32;6.95;;;;;;;-5.86;79.83;96219.25;4987809;28;20046;-73
2022/03/02 01:23:21;;;;;;;17.98;7.90;;;;;;;-5.81;79.36;96209.31;4987565;28;20042;-73
2022/03/02 01:25:46;;;;;;;16.27;7.47;;;;;;;-6.01;80.08;96213.06;4975089;28;20133;-74
2022/03/02 01:28:12;;;;;;;18.67;8.00;;;;;;;-6.17;81.19;96211.97;4984887;28;20089;-73
2022/03/02 01:30:37;;;;;;;19.85;8.50;;;;;;;-6.13;81.34;96223.53;4981014;28;20046;-74
2022/03/02 01:33:03;;;;;;;20.77;9.32;;;;;;;-6.06;81.42;96234.00;4981290;28;20089;-74
2022/03/02 01:35:28;;;;;;;16.75;7.80;;;;;;;-6.13;81.64;96228.66;4990124;28;20050;-74
2022/03/02 01:37:54;;;;;;;19.85;7.45;;;;;;;-6.05;80.23;96232.25;4988745;28;20038;-74
2022/03/02 01:40:20;;;;;;;15.18;7.45;;;;;;;-6.07;81.68;96227.25;4987708;28;20046;-74
2022/03/02 01:42:46;;;;;;;20.02;8.13;;;;;;;-6.02;81.29;96224.25;4985392;28;20050;-74
2022/03/02 01:45:14;;;;;;;18.35;8.10;;;;;;;-6.00;80.84;96217.25;4989493;28;20053;-73
2022/03/02 01:47:39;;;;;;;18.75;7.60;;;;;;;-6.01;80.22;96210.50;4989392;28;20130;-73
2022/03/02 01:50:08;;;;;;;16.70;7.45;;;;;;;-5.97;80.89;96216.94;4982329;28;20055;-73
2022/03/02 01:52:34;;;;;;;19.42;8.13;;;;;;;-5.95;81.10;96215.00;4985646;28;20043;-74
2022/03/02 01:55:00;;;;;;;18.95;8.05;;;;;;;-5.97;80.90;96216.94;4981015;28;20077;-74
2022/03/02 01:57:26;;;;;;;16.92;7.63;;;;;;;-6.01;80.15;96205.38;4970504;28;20054;-74
2022/03/02 01:59:52;;;;;;;16.70;7.72;;;;;;;-6.02;81.43;96199.44;4988394;28;20047;-73
2022/03/02 02:02:17;;;;;;;19.02;7.78;;;;;;;-6.08;80.54;96204.34;4989017;28;20092;-72
2022/03/02 02:04:43;;;;;;;17.65;7.78;;;;;;;-6.10;80.98;96202.72;4986549;28;20068;-73
2022/03/02 02:07:08;;;;;;;18.30;7.53;;;;;;;-6.24;81.24;96194.78;4988663;28;20042;-72
2022/03/02 02:09:34;;;;;;;18.90;7.13;;;;;;;-6.29;82.00;96192.66;4988271;28;20046;-73
2022/03/02 02:12:01;;;;;;;16.63;7.78;;;;;;;-6.21;80.79;96185.03;4981042;28;20133;-73
2022/03/02 02:14:27;;;;;;;20.73;8.15;;;;;;;-6.21;82.49;96174.78;4984215;28;20046;-72
2022/03/02 02:16:52;;;;;;;16.65;7.40;;;;;;;-6.42;82.15;96177.66;4989105;28;20129;-73
2022/03/02 02:19:18;;;;;;;17.65;7.82;;;;;;;-6.41;83.18;96173.31;4987463;28;20046;-72
2022/03/02 02:21:46;;;;;;;15.55;7.40;;;;;;;-6.42;82.35;96169.16;4987412;28;20416;-73
2022/03/02 02:24:13;;;;;;;16.52;7.70;;;;;;;-6.66;83.14;96175.66;4979192;28;20050;-73
2022/03/02 02:26:39;;;;;;;22.92;8.30;;;;;;;-6.57;83.72;96179.91;4986103;28;20034;-73
2022/03/02 02:29:05;;;;;;;17.10;7.68;;;;;;;-6.38;82.60;96173.03;4984428;28;20062;-73
2022/03/02 02:31:31;;;;;;;18.13;7.00;;;;;;;-6.39;83.33;96176.53;4969928;28;20535;-72
2022/03/02 02:33:57;;;;;;;17.63;8.32;;;;;;;-6.50;83.03;96180.94;4985217;28;20057;-72
2022/03/02 02:36:23;;;;;;;17.52;7.50;;;;;;;-6.58;83.22;96183.41;4988916;28;20254;-73
2022/03/02 02:38:48;;;;;;;20.23;7.75;;;;;;;-6.61;84.05;96191.38;4989260;28;20069;-73
2022/03/02 02:41:18;;;;;;;17.70;8.23;;;;;;;-6.65;84.27;96187.50;4988104;28;20480;-73
2022/03/02 02:43:44;;;;;;;16.27;7.68;;;;;;;-6.65;83.61;96187.50;4988602;28;20050;-73
2022/03/02 02:46:10;;;;;;;16.73;7.40;;;;;;;-6.59;83.47;96186.94;4992831;28;20046;-73
2022/03/02 02:48:37;;;;;;;19.30;7.70;;;;;;;-6.51;82.96;96184.44;4991592;28;20042;-73
2022/03/02 02:51:03;;;;;;;18.42;7.95;;;;;;;-6.56;83.40;96181.53;4974629;28;20034;-73
2022/03/02 02:53:29;;;;;;;20.23;8.13;;;;;;;-6.64;83.85;96178.88;4983465;28;20050;-72
2022/03/02 02:55:55;;;;;;;18.77;8.02;;;;;;;-6.64;84.70;96181.44;4977035;28;20051;-73
2022/03/02 02:58:21;;;;;;;19.13;7.63;;;;;;;-6.60;83.63;96169.97;4977299;28;20097;-73
2022/03/02 03:00:48;;;;;;;20.50;7.90;;;;;;;-6.64;83.58;96168.63;4992438;28;20519;-73
2022/03/02 03:03:14;;;;;;;22.85;8.02;;;;;;;-6.64;83.64;96150.72;4987155;28;20042;-73
2022/03/02 03:05:40;;;;;;;14.85;6.90;;;;;;;-6.68;84.08;96151.94;4973619;28;20046;-73
2022/03/02 03:08:09;;;;;;;17.40;8.13;;;;;;;-6.77;83.91;96152.84;4991510;28;20117;-73
2022/03/02 03:10:35;;;;;;;16.92;7.32;;;;;;;-6.77;84.37;96147.72;4991402;28;20034;-73
2022/03/02 03:13:01;;;;;;;17.35;7.72;;;;;;;-6.83;84.70;96156.78;4982721;28;20046;-73
2022/03/02 03:15:28;;;;;;;17.13;7.25;;;;;;;-6.90;85.02;96159.09;4992010;28;20130;-73
2022/03/02 03:17:54;;;;;;;17.45;7.25;;;;;;;-6.77;84.12;96157.97;4991697;28;20412;-73
2022/03/02 03:20:24;;;;;;;17.25;7.35;;;;;;;-6.80;84.22;96159.84;4991871;28;20092;-73
2022/03/02 03:22:51;;;;;;;15.98;7.60;;;;;;;-6.87;84.58;96153.69;4987121;28;20042;-73
2022/03/02 03:25:17;;;;;;;18.30;7.95;;;;;;;-6.88;84.00;96156.38;4989893;28;20109;-73
2022/03/02 03:27:44;;;;;;;18.25;7.88;;;;;;;-6.94;84.71;96152.66;4984203;28;20043;-73
2022/03/02 03:30:12;;;;;;;17.88;7.80;;;;;;;-7.01;85.03;96161.84;4985156;28;20042;-73
2022/03/02 03:32:37;;;;;;;16.80;8.05;;;;;;;-7.28;84.92;96165.22;4987745;28;20044;-73
2022/03/02 03:35:05;;;;;;;15.52;7.25;;;;;;;-7.33;86.35;96163.88;4977357;28;20046;-73
2022/03/02 03:37:31;;;;;;;15.77;7.18;;;;;;;-7.17;85.25;96167.59;4990880;28;20046;-73
2022/03/02 03:39:57;;;;;;;15.88;7.10;;;;;;;-7.14;85.38;96163.00;4990586;28;20534;-73
2022/03/02 03:42:23;;;;;;;18.73;8.88;;;;;;;-7.14;85.58;96163.00;4990752;28;20061;-73
2022/03/02 03:44:49;;;;;;;16.63;7.65;;;;;;;-7.13;85.14;96156.94;4991219;28;20058;-73
2022/03/02 03:47:15;;;;;;;14.73;7.35;;;;;;;-7.03;84.46;96149.22;4991335;28;20121;-73
2022/03/02 03:49:40;;;;;;;18.02;7.45;;;;;;;-7.14;85.45;96152.78;4983931;28;20122;-72
2022/03/02 03:52:06;;;;;;;21.75;7.72;;;;;;;-7.09;84.68;96160.03;4978909;28;20055;-72
2022/03/02 03:54:32;;;;;;;19.90;8.70;;;;;;;-7.16;85.60;96154.66;4977853;28;20039;-73
2022/03/02 03:56:58;;;;;;;18.98;8.55;;;;;;;-7.22;85.52;96154.44;4989330;28;20046;-72
2022/03/02 03:59:23;;;;;;;15.70;7.00;;;;;;;-7.21;85.19;96156.84;4990380;28;20511;-73
2022/03/02 04:01:49;;;;;;;15.20;7.20;;;;;;;-7.26;85.54;96159.03;4990784;28;20519;-73
2022/03/02 04:04:15;;;;;;;16.92;7.07;;;;;;;-7.10;85.23;96157.59;4972599;28;20547;-73
2022/03/02 04:06:40;;;;;;;21.25;7.68;;;;;;;-7.14;85.19;96144.28;4983827;28;20042;-73
2022/03/02 04:09:06;;;;;;;16.27;7.63;;;;;;;-7.07;84.38;96142.75;4988879;28;20438;-73
2022/03/02 04:11:31;;;;;;;13.85;6.65;;;;;;;-7.24;83.98;96135.84;4986003;28;20583;-73
2022/03/02 04:13:57;;;;;;;17.50;7.80;;;;;;;-7.26;84.63;96133.44;4972547;28;20053;-73
2022/03/02 04:16:23;;;;;;;18.80;7.68;;;;;;;-7.28;86.35;96137.91;4986703;28;20089;-73
2022/03/02 04:18:48;;;;;;;18.65;7.18;;;;;;;-7.35;85.69;96139.44;4986761;28;20050;-73
2022/03/02 04:21:15;;;;;;;16.75;8.02;;;;;;;-7.25;85.69;96137.63;4988763;28;22200;-73
2022/03/02 04:23:40;;;;;;;16.92;7.07;;;;;;;-7.20;85.94;96137.97;4990139;28;20420;-73
2022/03/02 04:26:06;;;;;;;18.52;7.60;;;;;;;-7.14;85.54;96136.59;4976520;28;20038;-73
2022/03/02 04:28:31;;;;;;;15.93;7.35;;;;;;;-7.11;85.37;96130.41;4990454;28;20584;-73
2022/03/02 04:30:57;;;;;;;18.25;7.05;;;;;;;-7.03;85.53;96120.25;4988734;28;20431;-71
2022/03/02 04:33:23;;;;;;;19.75;8.38;;;;;;;-7.03;84.86;96122.81;4977970;28;20574;-71
2022/03/02 04:35:48;;;;;;;20.20;8.10;;;;;;;-6.98;85.15;96125.78;4979585;28;20038;-72
2022/03/02 04:38:14;;;;;;;17.40;7.25;;;;;;;-6.96;85.38;96123.84;4988629;28;20035;-72
2022/03/02 04:40:39;;;;;;;16.00;7.03;;;;;;;-6.98;84.68;96115.53;4987428;28;20038;-72
2022/03/02 04:43:05;;;;;;;17.35;7.50;;;;;;;-6.93;85.25;96113.31;4982342;28;20053;-72
2022/03/02 04:45:31;;;;;;;28.95;8.00;;;;;;;-6.94;84.78;96104.03;4988614;28;20412;-72
2022/03/02 04:47:58;;;;;;;17.88;7.43;;;;;;;-6.93;84.79;96097.19;4987910;28;20050;-72
2022/03/02 04:50:25;;;;;;;14.38;6.53;;;;;;;-6.96;84.10;96093.16;4977511;28;20049;-72
2022/03/02 04:52:53;;;;;;;19.58;7.53;;;;;;;-6.94;85.35;96091.25;4977455;28;20042;-71
2022/03/02 04:55:19;;;;;;;16.30;7.40;;;;;;;-6.93;85.11;96092.84;4980101;28;20050;-72
2022/03/02 04:57:46;;;;;;;15.98;6.93;;;;;;;-6.86;85.19;96088.75;4985811;28;20042;-72
2022/03/02 05:00:14;;;;;;;13.52;6.90;;;;;;;-7.00;85.40;96107.97;4980992;28;20109;-72
2022/03/02 05:02:41;;;;;;;17.58;7.05;;;;;;;-7.00;85.19;96112.28;4978148;28;20039;-72
2022/03/02 05:05:08;;;;;;;15.85;7.28;;;;;;;-6.96;85.71;96098.28;4971442;28;20536;-72
2022/03/02 05:07:34;;;;;;;17.13;6.97;;;;;;;-6.69;84.63;96091.47;4980943;28;20045;-72
2022/03/02 05:10:01;;;;;;;15.82;7.22;;;;;;;-6.65;84.01;96085.91;4985816;28;20520;-72
2022/03/02 05:12:27;;;;;;;17.35;6.70;;;;;;;-6.63;83.56;96075.53;4978253;28;20057;-72
2022/03/02 05:14:53;;;;;;;16.33;7.10;;;;;;;-6.57;84.47;96072.38;4970730;28;20045;-72
2022/03/02 05:17:18;;;;;;;15.75;6.63;;;;;;;-6.59;83.61;96079.41;4984414;28;20546;-72
2022/03/02 05:19:44;;;;;;;18.33;7.72;;;;;;;-6.60;84.65;96077.78;4981697;28;20042;-72
2022/03/02 05:22:10;;;;;;;17.40;7.28;;;;;;;-6.51;84.17;96079.44;4985245;28;20043;-73
2022/03/02 05:24:36;;;;;;;14.55;6.57;;;;;;;-6.38;83.96;96080.81;4978769;28;20039;-73
2022/03/02 05:27:02;;;;;;;13.00;6.78;;;;;;;-6.25;84.56;96081.22;4979440;28;20051;-73
2022/03/02 05:29:28;;;;;;;15.23;6.90;;;;;;;-6.35;83.64;96075.41;4990042;28;20073;-73
2022/03/02 05:31:53;;;;;;;15.38;6.88;;;;;;;-6.46;83.97;96082.38;4986248;28;20042;-72
2022/03/02 05:34:19;;;;;;;16.10;6.82;;;;;;;-6.52;84.45;96080.41;4983830;28;20045;-73
2022/03/02 05:36:45;;;;;;;17.65;6.70;;;;;;;-6.39;84.28;96080.03;4982352;28;20607;-73
2022/03/02 05:39:10;;;;;;;15.82;7.30;;;;;;;-6.45;83.88;96081.44;4980828;28;20053;-72
2022/03/02 05:41:38;;;;;;;15.98;7.18;;;;;;;-6.31;83.83;96086.97;4985382;28;20054;-72
2022/03/02 05:44:07;;;;;;;15.02;6.72;;;;;;;-6.22;83.87;96091.19;4978787;28;20488;-73
2022/03/02 05:46:34;;;;;;;14.73;7.00;;;;;;;-6.13;83.28;96095.41;4975137;28;20130;-72
2022/03/02 05:49:00;;;;;;;16.52;6.50;;;;;;;-5.97;83.59;96094.69;4983591;28;20043;-72
2022/03/02 05:51:25;;;;;;;17.40;6.88;;;;;;;-5.92;82.99;96091.66;4975606;28;20611;-72
2022/03/02 05:53:51;;;;;;;14.13;6.60;;;;;;;-5.94;83.22;96094.38;4987322;28;20124;-71
2022/03/02 05:56:17;;;;;;;13.68;6.43;;;;;;;-5.83;83.94;96093.31;4986545;28;20054;-72
2022/03/02 05:58:42;;;;;;;16.00;7.15;;;;;;;-5.70;84.48;96090.34;4982996;28;20066;-72
2022/03/02 06:01:08;;;;;;;14.02;6.38;;;;;;;-5.78;84.03;96083.41;4988607;28;20046;-72
2022/03/02 06:03:34;;;;;;;13.30;6.93;;;;;;;-5.85;83.49;96087.53;4984859;28;20042;-72
2022/03/02 06:05:59;;;;;;;13.15;6.20;;;;;;;-5.82;83.57;96087.25;4987923;28;20129;-72
2022/03/02 06:08:25;;;;;;;15.93;6.55;;;;;;;-5.68;82.89;96079.94;4989367;28;20042;-71
2022/03/02 06:10:50;;;;;;;14.57;7.22;;;;;;;-5.70;83.06;96076.69;4985448;28;20066;-72
2022/03/02 06:13:16;;;;;;;16.23;6.72;;;;;;;-5.70;83.33;96074.13;4983373;28;20161;-72
2022/03/02 06:15:43;;;;;;;15.82;6.90;;;;;;;-5.64;83.44;96074.34;4993225;28;20046;-72
2022/03/02 06:18:09;;;;;;;13.95;6.85;;;;;;;-5.52;83.19;96072.28;4992880;28;20388;-72
2022/03/02 06:20:35;;;;;;;14.07;6.78;;;;;;;-5.56;83.12;96068.44;4987393;28;20035;-72
2022/03/02 06:23:02;;;;;;;14.93;6.45;;;;;;;-5.58;82.91;96062.66;4991718;28;20046;-72
2022/03/02 06:25:28;;;;;;;12.88;6.18;;;;;;;-5.45;82.64;96072.50;4990306;28;20113;-72
2022/03/02 06:27:54;;;;;;;26.48;6.55;;;;;;;-5.48;81.56;96073.59;4991117;28;20038;-72
2022/03/02 06:30:20;;;;;;;19.15;6.88;;;;;;;-5.54;81.94;96066.53;4992042;28;20046;-72
2022/03/02 06:32:46;;;;;;;12.73;5.88;;;;;;;-5.66;82.07;96070.31;4986116;28;20043;-72
2022/03/02 06:35:12;;;;;;;15.05;6.95;;;;;;;-5.71;82.64;96072.56;4987071;28;20043;-71
2022/03/02 06:37:38;;;;;;;22.63;6.85;;;;;;;-5.70;82.23;96069.84;4988153;28;20046;-72
2022/03/02 06:40:07;;;;;;;20.83;6.88;;;;;;;-5.55;82.23;96072.59;4974428;28;20405;-72
2022/03/02 06:42:50;;;;;;;14.32;6.20;;;;;;;-5.44;82.19;96074.91;4974518;28;20097;-72
2022/03/02 06:45:26;;;;;;;17.13;7.35;;;;;;;-5.38;81.82;96077.81;4982661;28;20165;-69
2022/03/02 06:48:10;;;;;;;20.25;6.35;;;;;;;-5.47;81.36;96085.47;4985020;28;20047;-70
2022/03/02 06:50:37;;;;;;;16.77;6.03;;;;;;;-5.44;82.26;96085.16;4992096;28;20035;-69
2022/03/02 06:53:11;;;;;;;20.83;6.75;;;;;;;-5.35;83.10;96082.63;4982034;28;20042;-70
2022/03/02 06:55:39;;;;;;;20.23;7.22;;;;;;;-5.13;83.26;96087.19;4987699;28;20046;-69
2022/03/02 06:58:08;;;;;;;16.83;6.43;;;;;;;-5.11;82.45;96085.25;4992192;28;20117;-70
2022/03/02 07:00:35;;;;;;;25.42;6.53;;;;;;;-5.09;81.55;96083.31;4992748;28;20110;-69
2022/03/02 07:03:04;;;;;;;16.67;7.05;;;;;;;-4.95;82.27;96083.69;4991785;28;20050;-70
2022/03/02 07:05:31;;;;;;;15.07;6.38;;;;;;;-4.96;81.44;96077.75;4980523;28;20427;-70
2022/03/02 07:07:59;;;;;;;19.63;7.15;;;;;;;-4.95;81.21;96078.56;4990035;28;20045;-70
2022/03/02 07:10:24;;;;;;;18.75;6.60;;;;;;;-4.85;80.65;96079.22;4990259;28;20042;-69
2022/03/02 07:12:50;;;;;;;20.27;7.38;;;;;;;-4.71;80.26;96081.16;4990661;28;20796;-71
2022/03/02 07:15:15;;;;;;;21.27;7.70;;;;;;;-4.62;79.50;96084.53;4991253;28;20053;-69
2022/03/02 07:17:41;;;;;;;14.80;6.78;;;;;;;-4.57;78.82;96091.75;4990115;28;20530;-69
2022/03/02 07:20:10;;;;;;;12.32;6.30;;;;;;;-4.52;78.47;96095.44;4988897;28;20053;-69
2022/03/02 07:23:03;;;;;;;32.75;6.93;;;;;;;-4.46;79.72;96099.13;4990777;28;20042;-69
2022/03/02 07:25:37;;;;;;;18.70;7.18;;;;;;;-4.03;78.90;96089.47;4987564;28;20051;-69
2022/03/02 07:28:04;;;;;;;24.05;7.65;;;;;;;-3.81;77.46;96087.16;4991533;28;20524;-69
2022/03/02 07:30:30;;;;;;;15.88;7.60;;;;;;;-3.73;76.99;96079.44;4989668;28;20058;-71
2022/03/02 07:33:02;;;;;;;17.40;6.85;;;;;;;-3.69;76.51;96075.56;4986839;28;20038;-69
2022/03/02 07:35:37;;;;;;;15.65;6.55;;;;;;;-3.62;75.59;96086.03;4985770;28;20041;-71
2022/03/02 07:38:05;;;;;;;22.83;6.82;;;;;;;-3.58;76.04;96078.75;4989519;28;20041;-69
2022/03/02 07:40:31;;;;;;;21.00;6.68;;;;;;;-3.48;74.41;96071.63;4990903;28;20066;-70
2022/03/02 07:42:58;;;;;;;12.68;6.38;;;;;;;-3.34;72.90;96078.66;4989665;28;20047;-70
2022/03/02 07:45:23;;;;;;;16.98;7.05;;;;;;;-3.23;74.05;96074.09;4990482;28;20038;-69
2022/03/02 07:47:50;;;;;;;16.65;6.68;;;;;;;-3.12;72.91;96068.56;4990623;28;20041;-69
2022/03/02 07:50:16;;;;;;;12.77;5.90;;;;;;;-2.94;72.27;96067.50;4991669;28;20113;-70
2022/03/02 07:52:53;;;;;;;14.85;6.13;;;;;;;-2.97;72.60;96064.31;4988978;28;20050;-70
2022/03/02 07:55:19;;;;;;;16.17;6.38;;;;;;;-2.90;73.13;96063.59;4987217;28;20114;-70
2022/03/02 07:57:51;;;;;;;13.88;6.38;;;;;;;-2.66;69.43;96060.91;4989734;28;20038;-71
2022/03/02 08:00:17;;;;;;;15.65;6.78;;;;;;;-2.84;70.97;96060.38;4986764;28;20043;-73
2022/03/02 08:02:43;;;;;;;14.80;6.78;;;;;;;-2.85;70.52;96058.75;4990711;28;20554;-76
2022/03/02 08:05:10;;;;;;;15.63;5.70;;;;;;;-2.83;72.69;96064.53;4991274;28;20042;-77
2022/03/02 08:07:36;;;;;;;13.73;5.97;;;;;;;-2.38;70.86;96057.75;4986435;28;20043;-78
2022/03/02 08:10:03;;;;;;;12.52;6.03;;;;;;;-2.16;68.85;96050.16;4989899;28;20079;-77
2022/03/02 08:12:29;;;;;;;14.40;6.90;;;;;;;-2.12;69.68;96056.56;4990241;28;20483;-77
2022/03/02 08:14:54;;;;;;;17.48;5.90;;;;;;;-1.95;68.29;96052.84;4989286;28;20049;-77
2022/03/02 08:17:20;;;;;;;14.80;6.57;;;;;;;-1.81;68.98;96042.69;4977990;28;20061;-77
2022/03/02 08:19:46;;;;;;;13.30;5.65;;;;;;;-1.74;66.95;96043.59;4990554;28;20054;-76
2022/03/02 08:22:18;;;;;;;20.63;5.80;;;;;;;-1.89;69.73;96040.22;4985924;28;20073;-75
2022/03/02 08:24:59;;;;;;;13.68;5.90;;;;;;;-2.01;69.95;96043.25;4981352;28;20054;-76
2022/03/02 08:27:26;;;;;;;15.82;5.65;;;;;;;-1.86;69.74;96040.66;4982263;28;20093;-76
2022/03/02 08:29:56;;;;;;;13.93;5.55;;;;;;;-2.00;69.79;96044.81;4976729;28;20046;-75
2022/03/02 08:32:24;;;;;;;11.35;5.30;;;;;;;-1.57;66.88;96039.88;4979269;28;20070;-76
2022/03/02 08:34:51;;;;;;;12.57;5.65;;;;;;;-1.75;68.33;96039.44;4979128;28;20057;-76
2022/03/02 08:37:18;;;;;;;15.70;5.65;;;;;;;-1.48;66.26;96032.00;4990371;28;20055;-76
2022/03/02 08:39:45;;;;;;;13.23;5.13;;;;;;;-1.52;68.29;96034.16;4990451;28;20046;-78
2022/03/02 08:42:11;;;;;;;12.32;6.10;;;;;;;-1.61;67.93;96033.47;4987344;28;20051;-70
2022/03/02 08:44:38;;;;;;;12.15;6.00;;;;;;;-1.71;70.00;96032.94;4985817;28;20092;-71
2022/03/02 08:47:04;;;;;;;12.00;5.60;;;;;;;-1.66;69.29;96027.22;4988161;28;20050;-71
2022/03/02 08:49:29;;;;;;;9.85;5.13;;;;;;;-1.60;68.93;96029.09;4988771;28;20061;-70
2022/03/02 08:51:57;;;;;;;12.25;5.15;;;;;;;-1.57;68.60;96023.56;4990278;28;20058;-71
2022/03/02 08:54:25;;;;;;;11.25;5.25;;;;;;;-1.41;68.55;96027.72;4984435;28;20559;-71
2022/03/02 08:56:52;;;;;;;14.07;5.65;;;;;;;-1.38;68.59;96027.34;4987566;28;20419;-71
2022/03/02 08:59:19;;;;;;;13.60;5.38;;;;;;;-1.27;66.86;96023.50;4989690;28;20042;-71
2022/03/02 09:01:50;;;;;;;11.95;4.75;;;;;;;-1.17;64.82;96021.44;4989051;28;20038;-71
2022/03/02 09:04:17;;;;;;;10.35;5.43;;;;;;;-0.95;65.13;96017.09;4988177;28;20050;-71
2022/03/02 09:06:44;;;;;;;10.85;5.13;;;;;;;-0.79;65.44;96015.25;4989997;28;20119;-71
2022/03/02 09:09:10;;;;;;;13.75;5.50;;;;;;;-0.77;65.26;96013.28;4988289;28;20042;-70
2022/03/02 09:11:38;;;;;;;14.88;5.47;;;;;;;-0.70;63.70;96003.81;4982295;28;20046;-71
2022/03/02 09:14:03;;;;;;;11.85;5.28;;;;;;;-0.50;63.00;96003.16;4982668;28;20125;-71
2022/03/02 09:16:30;;;;;;;11.63;5.43;;;;;;;-0.33;62.93;95999.31;4985301;28;20042;-70
2022/03/02 09:18:56;;;;;;;10.77;5.53;;;;;;;-0.11;62.64;95989.72;4989380;28;20038;-70
2022/03/02 09:21:22;;;;;;;13.88;5.88;;;;;;;0.03;64.34;95993.19;4982091;28;20177;-70
2022/03/02 09:23:49;;;;;;;14.15;6.57;;;;;;;0.38;61.69;95993.16;4988517;28;20038;-70
2022/03/02 09:26:17;;;;;;;16.00;6.22;;;;;;;0.49;63.38;95987.41;4982754;28;20061;-70
2022/03/02 09:28:46;;;;;;;17.55;6.38;;;;;;;0.32;62.51;95988.75;4989503;28;20038;-70
2022/03/02 09:31:14;;;;;;;16.83;6.95;;;;;;;0.41;61.79;95995.34;4985871;28;20049;-70
2022/03/02 09:33:41;;;;;;;19.63;6.50;;;;;;;0.51;59.52;95990.59;4984489;28;20182;-70
2022/03/02 09:36:09;;;;;;;17.50;6.25;;;;;;;0.62;60.96;95986.66;4985494;28;20125;-69
2022/03/02 09:38:37;;;;;;;18.05;6.00;;;;;;;0.78;57.58;95990.69;4989308;28;20067;-69
2022/03/02 09:41:08;;;;;;;17.13;6.07;;;;;;;0.96;55.84;95992.75;4987726;28;20042;-69
2022/03/02 09:43:36;;;;;;;11.35;5.40;;;;;;;1.12;56.71;95991.56;4985218;28;20043;-69
2022/03/02 09:46:06;;;;;;;12.13;5.85;;;;;;;1.11;55.58;95989.97;4988905;28;20069;-73
2022/03/02 09:48:40;;;;;;;14.80;6.00;;;;;;;1.28;55.22;95989.56;4986195;28;20050;-69
2022/03/02 09:51:08;;;;;;;13.57;6.72;;;;;;;1.23;56.38;95986.78;4976339;28;20039;-69
2022/03/02 09:53:35;;;;;;;15.27;7.13;;;;;;;1.37;56.45;95993.59;4984063;28;20042;-70
2022/03/02 09:56:08;;;;;;;17.63;8.00;;;;;;;1.39;58.01;95978.59;4989516;28;20582;-70
2022/03/02 09:58:38;;;;;;;15.30;8.38;;;;;;;1.44;57.57;95989.19;4980324;28;20043;-70
2022/03/02 10:01:13;;;;;;;16.45;8.52;;;;;;;1.55;57.11;95986.00;4980880;28;20132;-70
2022/03/02 10:03:44;;;;;;;19.20;9.30;;;;;;;1.59;57.03;95990.78;4979952;28;20065;-70
2022/03/02 10:06:12;;;;;;;19.80;8.07;;;;;;;1.72;56.76;95990.75;4975235;28;20039;-70
2022/03/02 10:08:48;;;;;;;16.67;7.70;;;;;;;2.01;54.20;95984.34;4993407;28;20050;-71
2022/03/02 10:11:23;;;;;;;16.63;7.90;;;;;;;2.31;55.06;95988.25;4993348;28;20117;-71
2022/03/02 10:13:50;;;;;;;16.55;7.65;;;;;;;2.60;53.59;95979.94;4983090;28;20512;-71
2022/03/02 10:16:22;;;;;;;22.85;9.07;;;;;;;2.60;52.80;95987.75;4973401;28;20067;-73
2022/03/02 10:18:54;;;;;;;16.10;7.97;;;;;;;2.77;51.53;95982.88;4971607;28;20065;-72
2022/03/02 10:21:27;;;;;;;19.55;7.80;;;;;;;3.31;50.71;95976.56;4977009;28;20093;-72
2022/03/02 10:24:02;;;;;;;23.27;8.02;;;;;;;3.36;51.06;95976.69;4980909;28;20035;-71
2022/03/02 10:26:34;;;;;;;17.92;7.18;;;;;;;3.96;51.14;95979.56;4990489;28;20042;-72
2022/03/02 10:29:03;;;;;;;15.63;7.78;;;;;;;3.40;51.62;95981.25;4990661;28;20528;-71
2022/03/02 10:31:32;;;;;;;27.17;7.63;;;;;;;3.44;51.43;95982.44;4982541;28;20077;-72
2022/03/02 10:34:21;;;;;;;17.13;7.93;;;;;;;3.53;50.73;95975.16;4986348;28;20046;-70
2022/03/02 10:36:56;;;;;;;21.73;8.25;;;;;;;3.27;51.19;95976.94;4984137;28;20058;-77
2022/03/02 10:39:34;;;;;;;15.35;7.35;;;;;;;3.41;51.84;95979.47;4991777;28;20046;-71
2022/03/02 10:42:04;;;;;;;12.05;6.85;;;;;;;3.55;51.25;95978.34;4982250;28;20045;-70
2022/03/02 10:44:52;;;;;;;15.90;7.57;;;;;;;3.33;51.22;95974.53;4978620;28;20039;-70
2022/03/02 10:47:21;;;;;;;13.45;6.90;;;;;;;3.86;50.20;95971.47;4992829;28;20069;-69
2022/03/02 10:49:50;;;;;;;15.65;7.53;;;;;;;4.09;47.47;95980.47;4990742;28;20046;-71
2022/03/02 10:52:21;;;;;;;14.55;7.10;;;;;;;3.91;47.71;95976.84;4986905;28;20058;-69
2022/03/02 10:54:49;;;;;;;14.63;6.88;;;;;;;4.18;47.16;95976.56;4981258;28;20526;-70
2022/03/02 10:57:18;;;;;;;19.55;8.32;;;;;;;4.06;46.08;95973.09;4988556;28;20575;-70
2022/03/02 10:59:44;;;;;;;15.25;7.03;;;;;;;4.10;47.22;95964.63;4991863;28;20050;-71
2022/03/02 11:02:11;;;;;;;12.32;7.05;;;;;;;4.51;47.14;95959.75;4988095;28;20046;-71
2022/03/02 11:04:43;;;;;;;16.02;7.10;;;;;;;4.43;46.21;95960.06;4982249;28;20042;-70
2022/03/02 11:07:08;;;;;;;11.48;6.55;;;;;;;4.24;46.76;95954.84;4992196;28;20121;-70
2022/03/02 11:09:34;;;;;;;13.90;6.55;;;;;;;4.20;46.90;95953.69;4991533;28;20492;-70
2022/03/02 11:12:00;;;;;;;15.93;6.90;;;;;;;4.10;47.65;95945.59;4981523;28;20050;-70
2022/03/02 11:14:27;;;;;;;13.23;6.55;;;;;;;3.88;47.57;95940.81;4987487;28;20042;-71
2022/03/02 11:17:13;;;;;;;12.85;6.97;;;;;;;4.18;48.61;95934.91;4991878;28;20050;-70
2022/03/02 11:19:45;;;;;;;14.18;6.80;;;;;;;4.03;47.13;95934.47;4976843;28;20414;-70
2022/03/02 11:22:17;;;;;;;17.15;6.63;;;;;;;4.40;46.79;95931.84;4983508;28;20046;-70
2022/03/02 11:24:45;;;;;;;12.45;6.03;;;;;;;4.79;45.41;95929.72;4976499;28;20619;-70
2022/03/02 11:27:43;;;;;;;17.08;6.57;;;;;;;5.47;43.54;95925.84;4991126;28;20043;-75